| Date | Time | Temp. (oF) | Dew Point (oF) | Rel. Hum. (%) | Press. (in.) | Wind Dir. | Wind Speed (mph) | Hourly Rainfall (in.) |
|
|---|---|---|---|---|---|---|---|---|---|
| 1 | 02/21 | 00:00 | 29 | 28 | 97 | 30.15 | ESE | 6 | 0.00 |
| 2 | 02/20 | 23:00 | 30 | 26 | 85 | 30.20 | ESE | 6 | 0.00 |
| 3 | 02/20 | 22:00 | 32 | 24 | 75 | 30.22 | ESE | 6 | 0.00 |
| 4 | 02/20 | 21:00 | 33 | 24 | 71 | 30.22 | SSE | 3 | 0.00 |
| 5 | 02/20 | 20:00 | 33 | 25 | 73 | 30.24 | E | 5 | 0.00 |
| 6 | 02/20 | 19:00 | 34 | 24 | 69 | 30.29 | SE | 7 | 0.00 |
| 7 | 02/20 | 18:00 | 35 | 25 | 67 | 30.31 | SE | 4 | 0.00 |
| 8 | 02/20 | 17:00 | 36 | 24 | 62 | 30.32 | SSE | 5 | 0.00 |
| 9 | 02/20 | 16:00 | 37 | 23 | 59 | 30.34 | S | 7 | 0.00 |
| 10 | 02/20 | 15:00 | 38 | 24 | 59 | 30.36 | S | 1 | 0.00 |
| 11 | 02/20 | 14:00 | 38 | 25 | 61 | 30.39 | SE | 3 | 0.00 |
| 12 | 02/20 | 13:00 | 36 | 23 | 61 | 30.42 | E | 1 | 0.00 |
| 13 | 02/20 | 12:00 | 37 | 23 | 59 | 30.45 | SSE | 2 | 0.00 |
| 14 | 02/20 | 11:00 | 36 | 24 | 62 | 30.46 | NNE | 2 | 0.00 |
| 15 | 02/20 | 10:00 | 33 | 25 | 73 | 30.49 | ENE | 3 | 0.00 |
| 16 | 02/20 | 09:00 | 26 | 24 | 94 | 30.49 | N | 2 | 0.00 |
| 17 | 02/20 | 08:00 | 22 | 20 | 94 | 30.48 | SSW | 3 | 0.00 |
| 18 | miss | miss | miss | miss | miss | miss | miss | miss | |
| 19 | 02/20 | 07:05 | 21 | 18 | 90 | 30.46 | NW | 3 | 0.00 |
| 20 | miss | miss | miss | miss | miss | miss | miss | miss | |
| 21 | 02/20 | 07:03 | 21 | 18 | 90 | 30.45 | NW | 2 | 0.00 |
| 22 | miss | miss | miss | miss | miss | miss | miss | miss | |
| 23 | 02/20 | 07:01 | 21 | 18 | 90 | 30.45 | NNW | 2 | 0.00 |
| 24 | miss | miss | miss | miss | miss | miss | miss | miss | |
| 25 | 02/20 | 06:59 | 21 | 18 | 89 | 30.45 | NNW | 2 | 0.00 |
| 26 | miss | miss | miss | miss | miss | miss | miss | miss | |
| 27 | 02/20 | 06:59 | 21 | 18 | 89 | 30.45 | NNW | 2 | 0.00 |
| 28 | miss | miss | miss | miss | miss | miss | miss | miss | |
| 29 | 02/20 | 06:59 | 21 | 18 | 89 | 30.45 | NNW | 2 | 0.00 |
| 30 | miss | miss | miss | miss | miss | miss | miss | miss | |
| 31 | 02/20 | 06:59 | 21 | 18 | 89 | 30.45 | NNW | 2 | 0.00 |
| 32 | miss | miss | miss | miss | miss | miss | miss | miss | |
| 33 | 02/20 | 06:59 | 21 | 18 | 89 | 30.45 | NNW | 2 | 0.00 |
| 34 | miss | miss | miss | miss | miss | miss | miss | miss | |
| 35 | 02/20 | 06:59 | 21 | 18 | 89 | 30.45 | NNW | 2 | 0.00 |
| 36 | miss | miss | miss | miss | miss | miss | miss | miss | |
| 37 | 02/20 | 06:59 | 21 | 18 | 89 | 30.45 | NNW | 2 | 0.00 |
| 38 | miss | miss | miss | miss | miss | miss | miss | miss | |
| 39 | 02/20 | 06:59 | 21 | 18 | 89 | 30.45 | NNW | 2 | 0.00 |
| 40 | miss | miss | miss | miss | miss | miss | miss | miss | |
| 41 | 02/20 | 06:59 | 21 | 18 | 89 | 30.45 | NNW | 2 | 0.00 |
| 42 | 02/20 | 06:59 | 21 | 18 | 89 | 30.45 | NNW | 2 | 0.00 |
| 43 | 02/20 | 06:00 | 22 | 18 | 86 | 30.44 | WSW | 1 | 0.00 |
| 44 | 02/20 | 05:00 | 23 | 18 | 81 | 30.43 | SW | 2 | 0.00 |
| 45 | 02/20 | 04:00 | 27 | 19 | 72 | 30.40 | W | 0 | 0.00 |
| 46 | 02/20 | 03:00 | 27 | 20 | 75 | 30.40 | WSW | 3 | 0.00 |
| 47 | 02/20 | 02:00 | 28 | 20 | 72 | 30.41 | WSW | 1 | 0.00 |
| 48 | 02/20 | 01:00 | 25 | 18 | 77 | 30.41 | SSW | 3 | 0.00 |
| 49 | 02/20 | 00:00 | 25 | 17 | 74 | 30.39 | SSW | 3 | 0.00 |
| 50 | 02/19 | 23:00 | 24 | 16 | 73 | 30.39 | S | 2 | 0.00 |
| 51 | 02/19 | 22:00 | 26 | 16 | 68 | 30.38 | SSE | 2 | 0.00 |
| 52 | 02/19 | 21:00 | 26 | 15 | 64 | 30.38 | SW | 3 | 0.00 |
| 53 | miss | miss | miss | miss | miss | miss | miss | miss | |
| 54 | 02/19 | 20:48 | 26 | 15 | 63 | 30.38 | SSW | 2 | 0.00 |
| 55 | miss | miss | miss | miss | miss | miss | miss | miss | |
| 56 | 02/19 | 20:46 | 26 | 15 | 63 | 30.38 | SW | 2 | 0.00 |
| 57 | miss | miss | miss | miss | miss | miss | miss | miss | |
| 58 | 02/19 | 20:44 | 26 | 15 | 63 | 30.38 | SW | 1 | 0.00 |
| 59 | miss | miss | miss | miss | miss | miss | miss | miss | |
| 60 | 02/19 | 20:42 | 26 | 15 | 63 | 30.38 | SW | 1 | 0.00 |
| 61 | miss | miss | miss | miss | miss | miss | miss | miss | |
| 62 | 02/19 | 20:40 | 27 | 16 | 63 | 30.39 | SSW | 3 | 0.00 |
| 63 | miss | miss | miss | miss | miss | miss | miss | miss | |
| 64 | 02/19 | 20:38 | 26 | 15 | 63 | 30.39 | SW | 1 | 0.00 |
| 65 | miss | miss | miss | miss | miss | miss | miss | miss | |
| 66 | 02/19 | 20:36 | 26 | 15 | 63 | 30.38 | WSW | 2 | 0.00 |
| 67 | miss | miss | miss | miss | miss | miss | miss | miss | |
| 68 | 02/19 | 20:34 | 26 | 15 | 63 | 30.39 | SW | 4 | 0.00 |
| 69 | miss | miss | miss | miss | miss | miss | miss | miss | |
| 70 | 02/19 | 20:32 | 26 | 15 | 63 | 30.38 | WSW | 2 | 0.00 |
| 71 | miss | miss | miss | miss | miss | miss | miss | miss | |
| 72 | 02/19 | 20:30 | 26 | 15 | 63 | 30.38 | SSW | 4 | 0.00 |
| 73 | miss | miss | miss | miss | miss | miss | miss | miss | |
| 74 | 02/19 | 20:29 | 26 | 15 | 63 | 30.38 | SW | 3 | 0.00 |
| 75 | miss | miss | miss | miss | miss | miss | miss | miss | |
| 76 | 02/19 | 20:29 | 26 | 15 | 63 | 30.38 | SW | 3 | 0.00 |
| 77 | 02/19 | 20:00 | 26 | 14 | 61 | 30.37 | SSW | 1 | 0.00 |
| 78 | 02/19 | 19:00 | 28 | 13 | 55 | 30.36 | S | 1 | 0.00 |
| 79 | 02/19 | 18:00 | 30 | 14 | 52 | 30.34 | SW | 3 | 0.00 |
| 80 | 02/19 | 17:00 | 32 | 13 | 47 | 30.32 | W | 6 | 0.00 |
| 81 | 02/19 | 16:00 | 33 | 14 | 46 | 30.30 | NW | 7 | 0.00 |
| 82 | 02/19 | 15:00 | 31 | 14 | 49 | 30.30 | SSW | 10 | 0.00 |
| 83 | 02/19 | 14:00 | 29 | 10 | 46 | 30.31 | SW | 10 | 0.00 |
| 84 | 02/19 | 13:00 | 28 | 11 | 50 | 30.35 | W | 5 | 0.00 |
| 85 | 02/19 | 12:00 | 27 | 10 | 50 | 30.37 | SW | 6 | 0.00 |
| 86 | 02/19 | 11:00 | 25 | 9 | 51 | 30.40 | NNW | 5 | 0.00 |
| 87 | 02/19 | 10:00 | 22 | 7 | 53 | 30.40 | WNW | 8 | 0.00 |
| 88 | 02/19 | 09:00 | 19 | 6 | 58 | 30.40 | WNW | 9 | 0.00 |
| 89 | 02/19 | 08:00 | 16 | 7 | 68 | 30.40 | WNW | 3 | 0.00 |
| 90 | 02/19 | 907:58 | 17 | 7 | 67 | 16.00 | 07:59 | 2 | 6.00 |
| 91 | 02/19 | 07:57 | 16 | 7 | 68 | 30.40 | W | 7 | 0.00 |
| 92 | 02/19 | 07:56 | 16 | 7 | 68 | 30.40 | SSW | 4 | 0.00 |
| 93 | 02/19 | 07:55 | 16 | 7 | 68 | 30.39 | WNW | 5 | 0.00 |
| 94 | miss | miss | miss | miss | miss | miss | miss | miss | |
| 95 | 02/19 | 07:53 | 16 | 7 | 68 | 30.39 | WNW | 6 | 0.00 |
| 96 | miss | miss | miss | miss | miss | miss | miss | miss | |
| 97 | 02/19 | 07:51 | 16 | 7 | 68 | 30.39 | W | 7 | 0.00 |
| 98 | miss | miss | miss | miss | miss | miss | miss | miss | |
| 99 | 02/19 | 07:51 | 16 | 7 | 68 | 30.39 | W | 7 | 0.00 |
| 100 | miss | miss | miss | miss | miss | miss | miss | miss | |
| 101 | 02/19 | 07:51 | 16 | 7 | 68 | 30.39 | W | 7 | 0.00 |
| 102 | miss | miss | miss | miss | miss | miss | miss | miss | |
| 103 | 02/19 | 07:51 | 16 | 7 | 68 | 30.39 | W | 7 | 0.00 |
| 104 | miss | miss | miss | miss | miss | miss | miss | miss | |
| 105 | 02/19 | 07:51 | 16 | 7 | 68 | 30.39 | W | 7 | 0.00 |
| 106 | miss | miss | miss | miss | miss | miss | miss | miss | |
| 107 | 02/19 | 07:51 | 16 | 7 | 68 | 30.39 | W | 7 | 0.00 |
| 108 | miss | miss | miss | miss | miss | miss | miss | miss | |
| 109 | 02/19 | 07:51 | 16 | 7 | 68 | 30.39 | W | 7 | 0.00 |
| 110 | miss | miss | miss | miss | miss | miss | miss | miss | |
| 111 | 02/19 | 07:51 | 16 | 7 | 68 | 30.39 | W | 7 | 0.00 |
| 112 | miss | miss | miss | miss | miss | miss | miss | miss | |
| 113 | 02/19 | 07:51 | 16 | 7 | 68 | 30.39 | W | 7 | 0.00 |
| 114 | 02/19 | 07:00 | 15 | 7 | 71 | 30.37 | WNW | 6 | 0.00 |
| 115 | 02/19 | 06:00 | 14 | 6 | 73 | 30.35 | W | 6 | 0.00 |
| 116 | 02/19 | 05:00 | 14 | 6 | 70 | 30.33 | WSW | 2 | 0.00 |
| 117 | 02/19 | 04:00 | 16 | 6 | 66 | 30.31 | NW | 3 | 0.00 |
| 118 | 02/19 | 03:00 | 16 | 5 | 64 | 30.29 | NW | 2 | 0.00 |
| 119 | 02/19 | 02:00 | 17 | 6 | 64 | 30.28 | NW | 3 | 0.00 |
| 120 | 02/19 | 01:00 | 17 | 6 | 64 | 30.27 | NW | 5 | 0.00 |
| 121 | 02/19 | 00:00 | 18 | 7 | 63 | 30.27 | W | 5 | 0.00 |